sensor_id;sensor_type;location;lat;lon;timestamp;P1;durP1;ratioP1;P2;durP2;ratioP2
64487;SDS011;50864;45.050;39.014;2023-03-22T00:02:22;5.50;;;3.15;;
64487;SDS011;50864;45.050;39.014;2023-03-22T00:04:51;6.30;;;3.42;;
64487;SDS011;50864;45.050;39.014;2023-03-22T00:07:16;6.15;;;3.28;;
64487;SDS011;50864;45.050;39.014;2023-03-22T00:09:42;6.82;;;3.22;;
64487;SDS011;50864;45.050;39.014;2023-03-22T00:12:08;6.90;;;3.90;;
64487;SDS011;50864;45.050;39.014;2023-03-22T00:14:34;5.62;;;3.28;;
64487;SDS011;50864;45.050;39.014;2023-03-22T00:17:00;8.70;;;3.92;;
64487;SDS011;50864;45.050;39.014;2023-03-22T00:19:26;7.10;;;3.33;;
64487;SDS011;50864;45.050;39.014;2023-03-22T00:21:53;6.12;;;3.08;;
64487;SDS011;50864;45.050;39.014;2023-03-22T00:24:20;5.78;;;3.03;;
64487;SDS011;50864;45.050;39.014;2023-03-22T00:26:46;12.32;;;3.70;;
64487;SDS011;50864;45.050;39.014;2023-03-22T00:29:12;6.28;;;3.22;;
64487;SDS011;50864;45.050;39.014;2023-03-22T00:31:40;7.85;;;4.05;;
64487;SDS011;50864;45.050;39.014;2023-03-22T00:34:06;10.50;;;3.70;;
64487;SDS011;50864;45.050;39.014;2023-03-22T00:36:31;6.00;;;3.58;;
64487;SDS011;50864;45.050;39.014;2023-03-22T00:38:58;6.90;;;3.62;;
64487;SDS011;50864;45.050;39.014;2023-03-22T00:41:24;6.70;;;3.72;;
64487;SDS011;50864;45.050;39.014;2023-03-22T00:43:50;6.82;;;3.62;;
64487;SDS011;50864;45.050;39.014;2023-03-22T00:46:17;9.48;;;4.20;;
64487;SDS011;50864;45.050;39.014;2023-03-22T00:48:44;8.38;;;4.10;;
64487;SDS011;50864;45.050;39.014;2023-03-22T00:51:10;8.57;;;3.75;;
64487;SDS011;50864;45.050;39.014;2023-03-22T00:53:36;11.25;;;3.95;;
64487;SDS011;50864;45.050;39.014;2023-03-22T00:56:03;9.45;;;3.58;;
64487;SDS011;50864;45.050;39.014;2023-03-22T00:58:31;11.70;;;3.95;;
64487;SDS011;50864;45.050;39.014;2023-03-22T01:00:58;9.68;;;3.80;;
64487;SDS011;50864;45.050;39.014;2023-03-22T01:03:39;8.02;;;3.80;;
64487;SDS011;50864;45.050;39.014;2023-03-22T01:06:06;8.65;;;3.70;;
64487;SDS011;50864;45.050;39.014;2023-03-22T01:08:33;8.80;;;3.53;;
64487;SDS011;50864;45.050;39.014;2023-03-22T01:11:03;9.88;;;4.10;;
64487;SDS011;50864;45.050;39.014;2023-03-22T01:13:30;9.70;;;3.87;;
64487;SDS011;50864;45.050;39.014;2023-03-22T01:15:56;11.70;;;4.00;;
64487;SDS011;50864;45.050;39.014;2023-03-22T01:18:22;12.15;;;4.35;;
64487;SDS011;50864;45.050;39.014;2023-03-22T01:20:47;13.68;;;5.07;;
64487;SDS011;50864;45.050;39.014;2023-03-22T01:23:13;8.85;;;4.07;;
64487;SDS011;50864;45.050;39.014;2023-03-22T01:25:39;9.68;;;4.00;;
64487;SDS011;50864;45.050;39.014;2023-03-22T01:28:05;11.02;;;4.03;;
64487;SDS011;50864;45.050;39.014;2023-03-22T01:30:32;15.88;;;4.28;;
64487;SDS011;50864;45.050;39.014;2023-03-22T01:32:58;16.00;;;5.20;;
64487;SDS011;50864;45.050;39.014;2023-03-22T01:35:24;15.13;;;5.10;;
64487;SDS011;50864;45.050;39.014;2023-03-22T01:37:50;12.27;;;5.03;;
64487;SDS011;50864;45.050;39.014;2023-03-22T01:40:17;14.25;;;5.15;;
64487;SDS011;50864;45.050;39.014;2023-03-22T01:42:43;13.68;;;5.00;;
64487;SDS011;50864;45.050;39.014;2023-03-22T01:47:44;14.30;;;4.90;;
64487;SDS011;50864;45.050;39.014;2023-03-22T01:50:11;12.23;;;5.85;;
64487;SDS011;50864;45.050;39.014;2023-03-22T01:52:37;12.80;;;5.22;;
64487;SDS011;50864;45.050;39.014;2023-03-22T01:55:05;10.77;;;5.03;;
64487;SDS011;50864;45.050;39.014;2023-03-22T01:57:34;10.00;;;5.25;;
64487;SDS011;50864;45.050;39.014;2023-03-22T02:00:04;9.75;;;4.90;;
64487;SDS011;50864;45.050;39.014;2023-03-22T02:02:38;12.88;;;5.22;;
64487;SDS011;50864;45.050;39.014;2023-03-22T02:05:05;11.93;;;5.50;;
64487;SDS011;50864;45.050;39.014;2023-03-22T02:07:31;10.55;;;5.43;;
64487;SDS011;50864;45.050;39.014;2023-03-22T02:09:58;12.23;;;5.57;;
64487;SDS011;50864;45.050;39.014;2023-03-22T02:12:51;16.33;;;5.45;;
64487;SDS011;50864;45.050;39.014;2023-03-22T02:33:28;13.65;;;7.43;;
64487;SDS011;50864;45.050;39.014;2023-03-22T02:38:48;13.55;;;7.50;;
64487;SDS011;50864;45.050;39.014;2023-03-22T02:48:53;16.55;;;8.13;;
64487;SDS011;50864;45.050;39.014;2023-03-22T02:51:27;14.63;;;7.62;;
64487;SDS011;50864;45.050;39.014;2023-03-22T02:54:00;19.45;;;8.45;;
64487;SDS011;50864;45.050;39.014;2023-03-22T02:56:31;15.55;;;8.27;;
64487;SDS011;50864;45.050;39.014;2023-03-22T02:59:00;17.33;;;8.40;;
64487;SDS011;50864;45.050;39.014;2023-03-22T03:01:29;18.20;;;8.90;;
64487;SDS011;50864;45.050;39.014;2023-03-22T03:04:00;16.85;;;8.77;;
64487;SDS011;50864;45.050;39.014;2023-03-22T03:06:31;14.25;;;8.07;;
64487;SDS011;50864;45.050;39.014;2023-03-22T03:08:58;17.12;;;8.73;;
64487;SDS011;50864;45.050;39.014;2023-03-22T03:11:27;16.95;;;7.87;;
64487;SDS011;50864;45.050;39.014;2023-03-22T03:13:53;15.35;;;8.25;;
64487;SDS011;50864;45.050;39.014;2023-03-22T03:16:20;19.77;;;9.30;;
64487;SDS011;50864;45.050;39.014;2023-03-22T03:29:02;18.33;;;10.40;;
64487;SDS011;50864;45.050;39.014;2023-03-22T03:31:46;22.83;;;10.35;;
64487;SDS011;50864;45.050;39.014;2023-03-22T03:37:02;17.40;;;9.00;;
64487;SDS011;50864;45.050;39.014;2023-03-22T03:39:31;19.67;;;9.32;;
64487;SDS011;50864;45.050;39.014;2023-03-22T03:41:57;19.98;;;9.32;;
64487;SDS011;50864;45.050;39.014;2023-03-22T03:44:25;17.37;;;8.95;;
64487;SDS011;50864;45.050;39.014;2023-03-22T03:46:51;15.02;;;8.65;;
64487;SDS011;50864;45.050;39.014;2023-03-22T03:49:17;15.73;;;8.80;;
64487;SDS011;50864;45.050;39.014;2023-03-22T03:51:53;17.50;;;9.35;;
64487;SDS011;50864;45.050;39.014;2023-03-22T03:54:19;19.45;;;9.55;;
64487;SDS011;50864;45.050;39.014;2023-03-22T03:56:46;15.82;;;9.40;;
64487;SDS011;50864;45.050;39.014;2023-03-22T03:59:15;20.20;;;10.07;;
64487;SDS011;50864;45.050;39.014;2023-03-22T04:01:43;21.23;;;9.55;;
64487;SDS011;50864;45.050;39.014;2023-03-22T04:04:21;15.95;;;8.52;;
64487;SDS011;50864;45.050;39.014;2023-03-22T04:06:55;19.77;;;8.77;;
64487;SDS011;50864;45.050;39.014;2023-03-22T04:09:25;21.50;;;9.20;;
64487;SDS011;50864;45.050;39.014;2023-03-22T04:11:52;18.48;;;9.23;;
64487;SDS011;50864;45.050;39.014;2023-03-22T04:14:18;17.37;;;8.90;;
64487;SDS011;50864;45.050;39.014;2023-03-22T04:16:45;23.40;;;10.38;;
64487;SDS011;50864;45.050;39.014;2023-03-22T04:19:12;20.42;;;9.68;;
64487;SDS011;50864;45.050;39.014;2023-03-22T04:21:37;21.27;;;11.12;;
64487;SDS011;50864;45.050;39.014;2023-03-22T04:24:05;19.83;;;8.70;;
64487;SDS011;50864;45.050;39.014;2023-03-22T04:26:32;16.15;;;8.57;;
64487;SDS011;50864;45.050;39.014;2023-03-22T04:29:01;18.30;;;9.55;;
64487;SDS011;50864;45.050;39.014;2023-03-22T04:31:28;21.27;;;10.93;;
64487;SDS011;50864;45.050;39.014;2023-03-22T04:33:54;18.27;;;8.65;;
64487;SDS011;50864;45.050;39.014;2023-03-22T04:36:21;18.25;;;9.32;;
64487;SDS011;50864;45.050;39.014;2023-03-22T04:38:48;18.75;;;9.60;;
64487;SDS011;50864;45.050;39.014;2023-03-22T04:41:15;23.70;;;10.00;;
64487;SDS011;50864;45.050;39.014;2023-03-22T04:43:42;22.98;;;9.63;;
64487;SDS011;50864;45.050;39.014;2023-03-22T04:46:12;21.48;;;9.30;;
64487;SDS011;50864;45.050;39.014;2023-03-22T04:48:39;17.15;;;8.82;;
64487;SDS011;50864;45.050;39.014;2023-03-22T04:51:08;22.62;;;10.85;;
64487;SDS011;50864;45.050;39.014;2023-03-22T04:53:35;24.67;;;9.63;;
64487;SDS011;50864;45.050;39.014;2023-03-22T04:56:06;22.85;;;9.68;;
64487;SDS011;50864;45.050;39.014;2023-03-22T04:58:32;21.48;;;8.50;;
64487;SDS011;50864;45.050;39.014;2023-03-22T05:00:59;20.33;;;9.98;;
64487;SDS011;50864;45.050;39.014;2023-03-22T05:03:24;18.75;;;9.20;;
64487;SDS011;50864;45.050;39.014;2023-03-22T05:05:51;19.52;;;9.32;;
64487;SDS011;50864;45.050;39.014;2023-03-22T05:08:19;19.42;;;9.55;;
64487;SDS011;50864;45.050;39.014;2023-03-22T05:10:45;13.48;;;8.65;;
64487;SDS011;50864;45.050;39.014;2023-03-22T05:13:11;19.27;;;9.10;;
64487;SDS011;50864;45.050;39.014;2023-03-22T05:15:38;19.90;;;9.75;;
64487;SDS011;50864;45.050;39.014;2023-03-22T05:18:05;19.20;;;8.90;;
64487;SDS011;50864;45.050;39.014;2023-03-22T05:20:31;19.37;;;9.35;;
64487;SDS011;50864;45.050;39.014;2023-03-22T05:22:58;27.08;;;10.10;;
64487;SDS011;50864;45.050;39.014;2023-03-22T05:25:27;21.10;;;11.10;;
64487;SDS011;50864;45.050;39.014;2023-03-22T05:27:53;17.10;;;10.55;;
64487;SDS011;50864;45.050;39.014;2023-03-22T05:30:20;24.85;;;12.23;;
64487;SDS011;50864;45.050;39.014;2023-03-22T05:32:47;24.40;;;11.32;;
64487;SDS011;50864;45.050;39.014;2023-03-22T05:35:14;22.30;;;9.82;;
64487;SDS011;50864;45.050;39.014;2023-03-22T05:37:40;21.20;;;10.60;;
64487;SDS011;50864;45.050;39.014;2023-03-22T05:40:07;17.85;;;9.35;;
64487;SDS011;50864;45.050;39.014;2023-03-22T05:42:34;18.77;;;9.23;;
64487;SDS011;50864;45.050;39.014;2023-03-22T05:45:02;21.90;;;10.05;;
64487;SDS011;50864;45.050;39.014;2023-03-22T05:47:28;20.33;;;9.73;;
64487;SDS011;50864;45.050;39.014;2023-03-22T05:49:54;19.75;;;9.55;;
64487;SDS011;50864;45.050;39.014;2023-03-22T05:52:21;22.08;;;9.90;;
64487;SDS011;50864;45.050;39.014;2023-03-22T05:54:47;16.87;;;9.20;;
64487;SDS011;50864;45.050;39.014;2023-03-22T05:57:13;17.87;;;10.05;;
64487;SDS011;50864;45.050;39.014;2023-03-22T05:59:39;21.12;;;10.55;;
64487;SDS011;50864;45.050;39.014;2023-03-22T06:02:06;16.87;;;8.50;;
64487;SDS011;50864;45.050;39.014;2023-03-22T06:04:32;19.37;;;10.02;;
64487;SDS011;50864;45.050;39.014;2023-03-22T06:06:58;17.25;;;9.00;;
64487;SDS011;50864;45.050;39.014;2023-03-22T06:09:24;18.60;;;9.80;;
64487;SDS011;50864;45.050;39.014;2023-03-22T06:11:51;17.00;;;9.45;;
64487;SDS011;50864;45.050;39.014;2023-03-22T06:14:17;17.17;;;9.30;;
64487;SDS011;50864;45.050;39.014;2023-03-22T06:16:43;15.43;;;8.60;;
64487;SDS011;50864;45.050;39.014;2023-03-22T06:19:09;19.83;;;9.88;;
64487;SDS011;50864;45.050;39.014;2023-03-22T06:21:35;18.52;;;9.65;;
64487;SDS011;50864;45.050;39.014;2023-03-22T06:24:01;17.30;;;9.68;;
64487;SDS011;50864;45.050;39.014;2023-03-22T06:26:28;16.85;;;9.30;;
64487;SDS011;50864;45.050;39.014;2023-03-22T06:28:54;15.75;;;7.72;;
64487;SDS011;50864;45.050;39.014;2023-03-22T06:31:21;17.73;;;10.63;;
64487;SDS011;50864;45.050;39.014;2023-03-22T06:33:47;20.00;;;10.60;;
64487;SDS011;50864;45.050;39.014;2023-03-22T06:36:14;21.35;;;10.38;;
64487;SDS011;50864;45.050;39.014;2023-03-22T06:38:41;19.08;;;9.52;;
64487;SDS011;50864;45.050;39.014;2023-03-22T06:41:07;22.00;;;9.90;;
64487;SDS011;50864;45.050;39.014;2023-03-22T06:43:34;20.90;;;11.60;;
64487;SDS011;50864;45.050;39.014;2023-03-22T06:46:28;21.20;;;11.38;;
64487;SDS011;50864;45.050;39.014;2023-03-22T06:48:54;19.08;;;10.65;;
64487;SDS011;50864;45.050;39.014;2023-03-22T06:51:20;18.20;;;10.90;;
64487;SDS011;50864;45.050;39.014;2023-03-22T06:53:46;18.90;;;11.12;;
64487;SDS011;50864;45.050;39.014;2023-03-22T06:56:12;20.15;;;10.75;;
64487;SDS011;50864;45.050;39.014;2023-03-22T06:58:39;17.77;;;9.70;;
64487;SDS011;50864;45.050;39.014;2023-03-22T07:01:05;23.48;;;12.23;;
64487;SDS011;50864;45.050;39.014;2023-03-22T07:03:32;18.05;;;10.48;;
64487;SDS011;50864;45.050;39.014;2023-03-22T07:06:02;22.15;;;10.77;;
64487;SDS011;50864;45.050;39.014;2023-03-22T07:08:29;20.45;;;10.57;;
64487;SDS011;50864;45.050;39.014;2023-03-22T07:10:55;23.62;;;11.80;;
64487;SDS011;50864;45.050;39.014;2023-03-22T07:13:21;15.45;;;8.77;;
64487;SDS011;50864;45.050;39.014;2023-03-22T07:15:47;19.58;;;10.57;;
64487;SDS011;50864;45.050;39.014;2023-03-22T07:18:14;16.20;;;9.48;;
64487;SDS011;50864;45.050;39.014;2023-03-22T07:20:40;17.70;;;11.60;;
64487;SDS011;50864;45.050;39.014;2023-03-22T07:23:07;16.52;;;8.43;;
64487;SDS011;50864;45.050;39.014;2023-03-22T07:25:36;17.15;;;11.20;;
64487;SDS011;50864;45.050;39.014;2023-03-22T07:28:04;18.55;;;10.63;;
64487;SDS011;50864;45.050;39.014;2023-03-22T07:30:32;14.30;;;8.57;;
64487;SDS011;50864;45.050;39.014;2023-03-22T07:33:02;15.25;;;9.57;;
64487;SDS011;50864;45.050;39.014;2023-03-22T07:35:28;17.02;;;9.20;;
64487;SDS011;50864;45.050;39.014;2023-03-22T07:37:54;22.62;;;10.55;;
64487;SDS011;50864;45.050;39.014;2023-03-22T07:40:20;22.60;;;10.73;;
64487;SDS011;50864;45.050;39.014;2023-03-22T07:42:48;19.25;;;9.98;;
64487;SDS011;50864;45.050;39.014;2023-03-22T07:45:16;19.27;;;10.27;;
64487;SDS011;50864;45.050;39.014;2023-03-22T07:47:48;18.02;;;9.48;;
64487;SDS011;50864;45.050;39.014;2023-03-22T07:50:17;19.65;;;9.68;;
64487;SDS011;50864;45.050;39.014;2023-03-22T07:52:43;15.63;;;9.32;;
64487;SDS011;50864;45.050;39.014;2023-03-22T07:55:10;16.48;;;10.38;;
64487;SDS011;50864;45.050;39.014;2023-03-22T07:58:00;16.50;;;8.45;;
64487;SDS011;50864;45.050;39.014;2023-03-22T08:00:27;16.15;;;8.30;;
64487;SDS011;50864;45.050;39.014;2023-03-22T08:02:54;15.38;;;8.15;;
64487;SDS011;50864;45.050;39.014;2023-03-22T08:05:22;14.38;;;7.50;;
64487;SDS011;50864;45.050;39.014;2023-03-22T08:07:48;17.30;;;8.02;;
64487;SDS011;50864;45.050;39.014;2023-03-22T08:10:16;15.70;;;7.85;;
64487;SDS011;50864;45.050;39.014;2023-03-22T08:12:43;20.05;;;8.18;;
64487;SDS011;50864;45.050;39.014;2023-03-22T08:15:09;15.65;;;7.72;;
64487;SDS011;50864;45.050;39.014;2023-03-22T08:17:35;15.20;;;7.30;;
64487;SDS011;50864;45.050;39.014;2023-03-22T08:20:02;14.02;;;7.43;;
64487;SDS011;50864;45.050;39.014;2023-03-22T08:22:34;18.55;;;8.55;;
64487;SDS011;50864;45.050;39.014;2023-03-22T08:25:05;13.07;;;7.37;;
64487;SDS011;50864;45.050;39.014;2023-03-22T08:27:32;15.43;;;8.15;;
64487;SDS011;50864;45.050;39.014;2023-03-22T08:29:58;12.90;;;7.28;;
64487;SDS011;50864;45.050;39.014;2023-03-22T08:32:25;14.05;;;8.93;;
64487;SDS011;50864;45.050;39.014;2023-03-22T08:34:51;17.45;;;8.25;;
64487;SDS011;50864;45.050;39.014;2023-03-22T08:37:17;14.02;;;7.85;;
64487;SDS011;50864;45.050;39.014;2023-03-22T08:39:47;16.48;;;9.13;;
64487;SDS011;50864;45.050;39.014;2023-03-22T08:42:14;11.98;;;7.35;;
64487;SDS011;50864;45.050;39.014;2023-03-22T08:44:41;16.60;;;8.32;;
64487;SDS011;50864;45.050;39.014;2023-03-22T08:47:08;15.60;;;7.70;;
64487;SDS011;50864;45.050;39.014;2023-03-22T08:49:34;15.50;;;8.20;;
64487;SDS011;50864;45.050;39.014;2023-03-22T08:52:00;20.77;;;7.43;;
64487;SDS011;50864;45.050;39.014;2023-03-22T08:54:28;16.95;;;7.45;;
64487;SDS011;50864;45.050;39.014;2023-03-22T08:57:03;14.90;;;6.97;;
64487;SDS011;50864;45.050;39.014;2023-03-22T08:59:35;16.20;;;7.15;;
64487;SDS011;50864;45.050;39.014;2023-03-22T09:02:03;17.08;;;7.57;;
64487;SDS011;50864;45.050;39.014;2023-03-22T09:04:29;15.55;;;8.43;;
64487;SDS011;50864;45.050;39.014;2023-03-22T09:06:56;13.73;;;6.87;;
64487;SDS011;50864;45.050;39.014;2023-03-22T09:09:21;18.05;;;8.68;;
64487;SDS011;50864;45.050;39.014;2023-03-22T09:11:48;17.85;;;7.90;;
64487;SDS011;50864;45.050;39.014;2023-03-22T09:14:14;17.05;;;7.60;;
64487;SDS011;50864;45.050;39.014;2023-03-22T09:16:40;16.60;;;6.97;;
64487;SDS011;50864;45.050;39.014;2023-03-22T09:19:05;14.52;;;7.70;;
64487;SDS011;50864;45.050;39.014;2023-03-22T09:21:32;17.05;;;6.87;;
64487;SDS011;50864;45.050;39.014;2023-03-22T09:24:00;10.93;;;6.43;;
64487;SDS011;50864;45.050;39.014;2023-03-22T09:26:27;15.13;;;6.78;;
64487;SDS011;50864;45.050;39.014;2023-03-22T09:28:54;14.63;;;7.30;;
64487;SDS011;50864;45.050;39.014;2023-03-22T09:31:20;15.27;;;7.57;;
64487;SDS011;50864;45.050;39.014;2023-03-22T09:33:47;11.73;;;6.12;;
64487;SDS011;50864;45.050;39.014;2023-03-22T09:36:23;14.32;;;7.05;;
64487;SDS011;50864;45.050;39.014;2023-03-22T09:38:49;11.02;;;6.05;;
64487;SDS011;50864;45.050;39.014;2023-03-22T09:44:06;11.98;;;7.28;;
64487;SDS011;50864;45.050;39.014;2023-03-22T09:46:37;23.40;;;7.80;;
64487;SDS011;50864;45.050;39.014;2023-03-22T09:49:04;12.27;;;5.25;;
64487;SDS011;50864;45.050;39.014;2023-03-22T09:54:01;11.85;;;6.57;;
64487;SDS011;50864;45.050;39.014;2023-03-22T09:56:29;12.77;;;7.65;;
64487;SDS011;50864;45.050;39.014;2023-03-22T10:06:28;16.20;;;7.95;;
64487;SDS011;50864;45.050;39.014;2023-03-22T10:09:00;17.87;;;7.00;;
64487;SDS011;50864;45.050;39.014;2023-03-22T10:16:45;13.38;;;6.43;;
64487;SDS011;50864;45.050;39.014;2023-03-22T10:19:15;12.23;;;7.22;;
64487;SDS011;50864;45.050;39.014;2023-03-22T10:21:44;11.32;;;6.75;;
64487;SDS011;50864;45.050;39.014;2023-03-22T10:26:40;12.35;;;6.07;;
64487;SDS011;50864;45.050;39.014;2023-03-22T10:29:49;14.45;;;7.57;;
64487;SDS011;50864;45.050;39.014;2023-03-22T10:31:55;12.75;;;6.47;;
64487;SDS011;50864;45.050;39.014;2023-03-22T10:34:30;14.87;;;5.62;;
64487;SDS011;50864;45.050;39.014;2023-03-22T10:36:57;15.90;;;6.37;;
64487;SDS011;50864;45.050;39.014;2023-03-22T10:39:35;13.32;;;6.25;;
64487;SDS011;50864;45.050;39.014;2023-03-22T10:42:03;11.85;;;6.90;;
64487;SDS011;50864;45.050;39.014;2023-03-22T10:44:31;9.75;;;5.10;;
64487;SDS011;50864;45.050;39.014;2023-03-22T10:47:00;11.18;;;5.68;;
64487;SDS011;50864;45.050;39.014;2023-03-22T10:49:34;13.73;;;6.32;;
64487;SDS011;50864;45.050;39.014;2023-03-22T10:52:03;14.40;;;6.18;;
64487;SDS011;50864;45.050;39.014;2023-03-22T10:54:29;14.13;;;6.37;;
64487;SDS011;50864;45.050;39.014;2023-03-22T10:56:55;15.90;;;7.57;;
64487;SDS011;50864;45.050;39.014;2023-03-22T11:02:15;12.95;;;5.62;;
64487;SDS011;50864;45.050;39.014;2023-03-22T11:04:51;12.63;;;7.43;;
64487;SDS011;50864;45.050;39.014;2023-03-22T11:09:59;12.23;;;6.95;;
64487;SDS011;50864;45.050;39.014;2023-03-22T11:12:47;16.90;;;8.02;;
64487;SDS011;50864;45.050;39.014;2023-03-22T11:15:29;11.90;;;6.12;;
64487;SDS011;50864;45.050;39.014;2023-03-22T11:17:57;15.82;;;6.55;;
64487;SDS011;50864;45.050;39.014;2023-03-22T11:20:24;16.33;;;8.05;;
64487;SDS011;50864;45.050;39.014;2023-03-22T11:22:50;11.25;;;5.65;;
64487;SDS011;50864;45.050;39.014;2023-03-22T11:25:19;12.20;;;6.62;;
64487;SDS011;50864;45.050;39.014;2023-03-22T11:27:50;15.55;;;6.70;;
64487;SDS011;50864;45.050;39.014;2023-03-22T11:30:25;12.32;;;6.00;;
64487;SDS011;50864;45.050;39.014;2023-03-22T11:35:34;15.25;;;5.80;;
64487;SDS011;50864;45.050;39.014;2023-03-22T11:38:00;10.65;;;5.80;;
64487;SDS011;50864;45.050;39.014;2023-03-22T11:40:28;13.45;;;5.30;;
64487;SDS011;50864;45.050;39.014;2023-03-22T11:42:55;12.93;;;5.12;;
64487;SDS011;50864;45.050;39.014;2023-03-22T11:45:31;12.52;;;6.07;;
64487;SDS011;50864;45.050;39.014;2023-03-22T11:48:02;11.85;;;5.97;;
64487;SDS011;50864;45.050;39.014;2023-03-22T11:52:55;16.40;;;5.70;;
64487;SDS011;50864;45.050;39.014;2023-03-22T11:55:21;12.18;;;6.18;;
64487;SDS011;50864;45.050;39.014;2023-03-22T11:57:48;14.93;;;5.90;;
64487;SDS011;50864;45.050;39.014;2023-03-22T12:00:19;12.52;;;5.20;;
64487;SDS011;50864;45.050;39.014;2023-03-22T12:03:01;11.90;;;5.10;;
64487;SDS011;50864;45.050;39.014;2023-03-22T12:05:30;13.85;;;5.37;;
64487;SDS011;50864;45.050;39.014;2023-03-22T12:10:49;8.23;;;4.25;;
64487;SDS011;50864;45.050;39.014;2023-03-22T12:13:25;9.25;;;4.80;;
64487;SDS011;50864;45.050;39.014;2023-03-22T12:16:00;12.18;;;4.53;;
64487;SDS011;50864;45.050;39.014;2023-03-22T12:18:31;11.52;;;4.78;;
64487;SDS011;50864;45.050;39.014;2023-03-22T12:21:00;13.07;;;6.53;;
64487;SDS011;50864;45.050;39.014;2023-03-22T12:23:30;10.60;;;4.57;;
64487;SDS011;50864;45.050;39.014;2023-03-22T12:26:25;8.68;;;4.15;;
64487;SDS011;50864;45.050;39.014;2023-03-22T12:29:07;10.90;;;4.47;;
64487;SDS011;50864;45.050;39.014;2023-03-22T12:31:41;8.27;;;4.37;;
64487;SDS011;50864;45.050;39.014;2023-03-22T12:34:13;9.85;;;4.30;;
64487;SDS011;50864;45.050;39.014;2023-03-22T12:39:08;11.95;;;4.60;;
64487;SDS011;50864;45.050;39.014;2023-03-22T12:41:38;8.93;;;4.03;;
64487;SDS011;50864;45.050;39.014;2023-03-22T12:46:45;7.87;;;3.87;;
64487;SDS011;50864;45.050;39.014;2023-03-22T12:51:43;12.02;;;4.18;;
64487;SDS011;50864;45.050;39.014;2023-03-22T12:54:13;9.05;;;3.97;;
64487;SDS011;50864;45.050;39.014;2023-03-22T12:56:44;9.43;;;3.95;;
64487;SDS011;50864;45.050;39.014;2023-03-22T12:59:15;12.10;;;4.53;;
64487;SDS011;50864;45.050;39.014;2023-03-22T13:01:47;13.57;;;4.65;;
64487;SDS011;50864;45.050;39.014;2023-03-22T13:04:27;8.55;;;4.35;;
64487;SDS011;50864;45.050;39.014;2023-03-22T13:06:55;11.75;;;4.25;;
64487;SDS011;50864;45.050;39.014;2023-03-22T13:15:01;12.30;;;4.23;;
64487;SDS011;50864;45.050;39.014;2023-03-22T13:19:57;12.65;;;4.82;;
64487;SDS011;50864;45.050;39.014;2023-03-22T13:22:27;14.25;;;4.90;;
64487;SDS011;50864;45.050;39.014;2023-03-22T13:27:35;10.38;;;3.87;;
64487;SDS011;50864;45.050;39.014;2023-03-22T13:30:13;11.12;;;4.22;;
64487;SDS011;50864;45.050;39.014;2023-03-22T13:32:41;12.30;;;4.55;;
64487;SDS011;50864;45.050;39.014;2023-03-22T13:35:18;14.83;;;5.23;;
64487;SDS011;50864;45.050;39.014;2023-03-22T13:37:46;12.88;;;4.65;;
64487;SDS011;50864;45.050;39.014;2023-03-22T13:40:20;14.13;;;5.55;;
64487;SDS011;50864;45.050;39.014;2023-03-22T13:42:50;11.82;;;4.68;;
64487;SDS011;50864;45.050;39.014;2023-03-22T13:45:30;10.95;;;5.18;;
64487;SDS011;50864;45.050;39.014;2023-03-22T13:48:10;12.15;;;4.70;;
64487;SDS011;50864;45.050;39.014;2023-03-22T13:50:37;12.00;;;4.90;;
64487;SDS011;50864;45.050;39.014;2023-03-22T13:56:03;11.10;;;4.70;;
64487;SDS011;50864;45.050;39.014;2023-03-22T14:01:26;10.88;;;4.37;;
64487;SDS011;50864;45.050;39.014;2023-03-22T14:03:55;12.13;;;4.37;;
64487;SDS011;50864;45.050;39.014;2023-03-22T14:06:23;14.90;;;4.50;;
64487;SDS011;50864;45.050;39.014;2023-03-22T14:08:51;11.98;;;4.40;;
64487;SDS011;50864;45.050;39.014;2023-03-22T14:11:21;10.05;;;4.62;;
64487;SDS011;50864;45.050;39.014;2023-03-22T14:13:50;12.75;;;4.85;;
64487;SDS011;50864;45.050;39.014;2023-03-22T14:19:23;8.23;;;4.22;;
64487;SDS011;50864;45.050;39.014;2023-03-22T14:21:51;9.55;;;4.12;;
64487;SDS011;50864;45.050;39.014;2023-03-22T14:24:18;10.48;;;4.45;;
64487;SDS011;50864;45.050;39.014;2023-03-22T14:26:55;10.27;;;4.18;;
64487;SDS011;50864;45.050;39.014;2023-03-22T14:29:23;13.00;;;4.60;;
64487;SDS011;50864;45.050;39.014;2023-03-22T14:31:59;16.92;;;5.00;;
64487;SDS011;50864;45.050;39.014;2023-03-22T14:34:27;10.18;;;5.30;;
64487;SDS011;50864;45.050;39.014;2023-03-22T14:36:56;10.20;;;5.12;;
64487;SDS011;50864;45.050;39.014;2023-03-22T14:39:23;14.63;;;4.85;;
64487;SDS011;50864;45.050;39.014;2023-03-22T14:41:54;11.23;;;4.65;;
64487;SDS011;50864;45.050;39.014;2023-03-22T14:44:20;11.73;;;4.68;;
64487;SDS011;50864;45.050;39.014;2023-03-22T14:46:46;11.23;;;4.85;;
64487;SDS011;50864;45.050;39.014;2023-03-22T14:49:14;11.45;;;5.12;;
64487;SDS011;50864;45.050;39.014;2023-03-22T14:51:40;13.05;;;4.95;;
64487;SDS011;50864;45.050;39.014;2023-03-22T14:54:09;12.82;;;4.40;;
64487;SDS011;50864;45.050;39.014;2023-03-22T14:56:39;10.00;;;4.22;;
64487;SDS011;50864;45.050;39.014;2023-03-22T14:59:10;9.60;;;4.70;;
64487;SDS011;50864;45.050;39.014;2023-03-22T15:01:40;10.52;;;5.00;;
64487;SDS011;50864;45.050;39.014;2023-03-22T15:04:10;12.63;;;5.12;;
64487;SDS011;50864;45.050;39.014;2023-03-22T15:06:48;13.88;;;5.00;;
64487;SDS011;50864;45.050;39.014;2023-03-22T15:09:15;10.75;;;4.57;;
64487;SDS011;50864;45.050;39.014;2023-03-22T15:11:43;10.40;;;3.95;;
64487;SDS011;50864;45.050;39.014;2023-03-22T15:14:09;12.70;;;4.68;;
64487;SDS011;50864;45.050;39.014;2023-03-22T15:16:37;13.43;;;5.22;;
64487;SDS011;50864;45.050;39.014;2023-03-22T15:19:03;13.38;;;5.82;;
64487;SDS011;50864;45.050;39.014;2023-03-22T15:21:30;12.77;;;5.18;;
64487;SDS011;50864;45.050;39.014;2023-03-22T15:23:58;16.60;;;6.35;;
64487;SDS011;50864;45.050;39.014;2023-03-22T15:26:36;18.08;;;6.30;;
64487;SDS011;50864;45.050;39.014;2023-03-22T15:29:05;15.75;;;6.45;;
64487;SDS011;50864;45.050;39.014;2023-03-22T15:31:33;14.85;;;6.12;;
64487;SDS011;50864;45.050;39.014;2023-03-22T15:34:07;19.87;;;6.05;;
64487;SDS011;50864;45.050;39.014;2023-03-22T15:36:34;14.15;;;5.93;;
64487;SDS011;50864;45.050;39.014;2023-03-22T15:39:03;14.87;;;5.47;;
64487;SDS011;50864;45.050;39.014;2023-03-22T15:41:36;15.73;;;5.95;;
64487;SDS011;50864;45.050;39.014;2023-03-22T15:46:52;14.10;;;5.97;;
64487;SDS011;50864;45.050;39.014;2023-03-22T15:49:20;11.40;;;5.62;;
64487;SDS011;50864;45.050;39.014;2023-03-22T15:51:49;14.15;;;5.30;;
64487;SDS011;50864;45.050;39.014;2023-03-22T15:54:28;16.35;;;5.93;;
64487;SDS011;50864;45.050;39.014;2023-03-22T15:57:06;11.30;;;5.85;;
64487;SDS011;50864;45.050;39.014;2023-03-22T15:59:32;14.40;;;5.80;;
64487;SDS011;50864;45.050;39.014;2023-03-22T16:01:59;12.82;;;5.82;;
64487;SDS011;50864;45.050;39.014;2023-03-22T16:04:31;20.85;;;6.28;;
64487;SDS011;50864;45.050;39.014;2023-03-22T16:06:57;14.15;;;5.62;;
64487;SDS011;50864;45.050;39.014;2023-03-22T16:09:23;12.73;;;5.00;;
64487;SDS011;50864;45.050;39.014;2023-03-22T16:11:49;22.15;;;5.32;;
64487;SDS011;50864;45.050;39.014;2023-03-22T16:14:16;15.40;;;5.53;;
64487;SDS011;50864;45.050;39.014;2023-03-22T16:16:43;14.23;;;5.40;;
64487;SDS011;50864;45.050;39.014;2023-03-22T16:19:10;19.52;;;5.68;;